createdAt,value
2018-09-06T00:01:33.018Z,18.90
2018-09-06T00:04:01.357Z,18.90
2018-09-06T00:06:29.684Z,18.90
2018-09-06T00:08:58.271Z,18.90
2018-09-06T00:11:26.702Z,18.80
2018-09-06T00:13:55.025Z,18.80
2018-09-06T00:16:23.371Z,18.80
2018-09-06T00:18:51.885Z,18.80
2018-09-06T00:21:20.213Z,18.80
2018-09-06T00:23:48.526Z,18.70
2018-09-06T00:26:17.103Z,18.70
2018-09-06T00:28:45.457Z,18.70
2018-09-06T00:31:13.769Z,18.70
2018-09-06T00:33:42.092Z,18.60
2018-09-06T00:36:10.441Z,18.60
2018-09-06T00:38:38.785Z,18.70
2018-09-06T00:41:07.151Z,18.80
2018-09-06T00:43:35.501Z,18.90
2018-09-06T00:46:04.089Z,18.90
2018-09-06T00:48:32.473Z,18.90
2018-09-06T00:51:01.656Z,18.90
2018-09-06T00:53:29.937Z,18.90
2018-09-06T00:55:58.494Z,19.10
2018-09-06T00:58:26.834Z,19.10
2018-09-06T01:00:55.184Z,19.10
2018-09-06T01:03:23.496Z,19.10
2018-09-06T01:05:51.831Z,19.00
2018-09-06T01:08:20.192Z,19.00
2018-09-06T01:10:48.541Z,19.00
2018-09-06T01:13:16.873Z,19.10
2018-09-06T01:15:45.196Z,19.20
2018-09-06T01:18:13.506Z,19.10
2018-09-06T01:20:41.861Z,19.10
2018-09-06T01:23:10.201Z,19.10
2018-09-06T01:25:48.985Z,19.10
2018-09-06T01:28:18.701Z,19.00
2018-09-06T01:30:47.173Z,19.00
2018-09-06T01:33:15.510Z,19.00
2018-09-06T01:36:46.921Z,19.00
2018-09-06T01:39:15.580Z,19.10
2018-09-06T01:41:44.053Z,19.00
2018-09-06T01:44:12.429Z,19.00
2018-09-06T01:46:40.761Z,18.90
2018-09-06T01:49:09.332Z,18.80
2018-09-06T01:51:37.642Z,18.70
2018-09-06T01:54:05.960Z,18.80
2018-09-06T01:56:34.293Z,18.70
2018-09-06T01:59:02.761Z,18.60
2018-09-06T02:01:31.141Z,18.30
2018-09-06T02:03:59.468Z,18.10
2018-09-06T02:06:27.792Z,17.90
2018-09-06T02:08:56.124Z,17.90
2018-09-06T02:11:24.491Z,18.10
2018-09-06T02:13:52.816Z,18.10
2018-09-06T02:16:21.124Z,18.10
2018-09-06T02:18:49.453Z,18.00
2018-09-06T02:21:17.808Z,18.00
2018-09-06T02:23:46.164Z,18.10
2018-09-06T02:26:14.509Z,18.00
2018-09-06T02:28:42.833Z,17.90
2018-09-06T02:31:11.166Z,17.80
2018-09-06T02:33:40.112Z,17.80
2018-09-06T02:36:08.464Z,17.80
2018-09-06T02:38:36.799Z,17.80
2018-09-06T02:41:05.139Z,17.80
2018-09-06T02:43:33.476Z,17.80
2018-09-06T02:46:01.832Z,17.80
2018-09-06T02:48:35.389Z,17.80
2018-09-06T02:51:08.969Z,17.90
2018-09-06T02:53:37.344Z,17.90
2018-09-06T02:56:06.049Z,17.90
2018-09-06T02:58:34.386Z,18.00
2018-09-06T03:01:02.719Z,18.00
2018-09-06T03:03:31.060Z,17.90
2018-09-06T03:05:59.397Z,17.90
2018-09-06T03:08:27.823Z,17.80
2018-09-06T03:11:03.381Z,17.70
2018-09-06T03:13:31.708Z,17.60
2018-09-06T03:16:00.786Z,17.50
2018-09-06T03:18:30.096Z,17.50
2018-09-06T03:20:58.432Z,17.50
2018-09-06T03:23:27.028Z,17.50
2018-09-06T03:25:55.381Z,17.60
2018-09-06T03:28:24.317Z,17.60
2018-09-06T03:30:52.758Z,17.70
2018-09-06T03:33:21.201Z,17.70
2018-09-06T03:35:52.219Z,17.60
2018-09-06T03:38:20.667Z,17.60
2018-09-06T03:40:49.055Z,17.80
2018-09-06T03:43:19.997Z,17.80
2018-09-06T03:45:48.458Z,17.80
2018-09-06T03:48:16.948Z,17.80
2018-09-06T03:50:45.376Z,17.90
2018-09-06T03:53:13.977Z,17.80
2018-09-06T03:55:42.446Z,17.90
2018-09-06T03:58:10.810Z,17.80
2018-09-06T04:00:39.137Z,17.70
2018-09-06T04:03:07.525Z,17.60
2018-09-06T04:05:35.874Z,17.60
2018-09-06T04:08:04.244Z,17.70
2018-09-06T04:10:32.586Z,17.70
2018-09-06T04:13:00.920Z,17.70
2018-09-06T04:15:29.286Z,17.70
2018-09-06T04:17:57.656Z,17.60
2018-09-06T04:20:26.022Z,17.50
2018-09-06T04:22:55.393Z,17.50
2018-09-06T04:25:23.734Z,17.50
2018-09-06T04:27:52.056Z,17.40
2018-09-06T04:30:20.420Z,17.40
2018-09-06T04:32:48.743Z,17.30
2018-09-06T04:35:17.103Z,17.30
2018-09-06T04:37:45.408Z,17.30
2018-09-06T04:40:13.757Z,17.40
2018-09-06T04:42:42.077Z,17.40
2018-09-06T04:45:10.441Z,17.30
2018-09-06T04:47:38.744Z,17.30
2018-09-06T04:50:07.174Z,17.40
2018-09-06T04:52:35.493Z,17.50
2018-09-06T04:55:03.837Z,17.30
2018-09-06T04:57:32.181Z,17.30
2018-09-06T05:00:00.502Z,17.20
2018-09-06T05:02:28.826Z,17.20
2018-09-06T05:04:57.209Z,17.30
2018-09-06T05:07:25.811Z,17.50
2018-09-06T05:09:54.136Z,17.40
2018-09-06T05:12:23.157Z,17.30
2018-09-06T05:14:51.505Z,17.30
2018-09-06T05:17:21.709Z,17.40
2018-09-06T05:19:50.038Z,17.40
2018-09-06T05:22:18.385Z,17.50
2018-09-06T05:24:46.841Z,17.50
2018-09-06T05:27:15.153Z,17.50
2018-09-06T05:29:43.509Z,17.50
2018-09-06T05:32:12.296Z,17.40
2018-09-06T05:34:40.620Z,17.40
2018-09-06T05:37:08.978Z,17.40
2018-09-06T05:39:37.304Z,17.40
2018-09-06T05:42:05.716Z,17.50
2018-09-06T05:44:34.065Z,17.40
2018-09-06T05:47:02.449Z,17.40
2018-09-06T05:49:30.829Z,17.50
2018-09-06T05:51:59.168Z,17.60
2018-09-06T05:54:27.495Z,17.60
2018-09-06T05:56:55.813Z,17.70
2018-09-06T05:59:24.234Z,17.60
2018-09-06T06:01:52.541Z,17.60
2018-09-06T06:04:28.854Z,17.60
2018-09-06T06:06:57.205Z,17.70
2018-09-06T06:09:25.511Z,17.70
2018-09-06T06:12:12.190Z,17.70
2018-09-06T06:14:40.600Z,17.70
2018-09-06T06:17:09.943Z,17.70
2018-09-06T06:19:41.026Z,17.70
2018-09-06T06:22:09.454Z,17.70
2018-09-06T06:24:37.718Z,17.60
2018-09-06T06:27:06.061Z,17.60
2018-09-06T06:29:34.381Z,17.60
2018-09-06T06:32:02.684Z,17.60
2018-09-06T06:34:31.038Z,17.70
2018-09-06T06:36:59.416Z,17.60
2018-09-06T06:39:27.744Z,17.80
2018-09-06T06:41:56.060Z,17.80
2018-09-06T06:44:24.536Z,17.80
2018-09-06T06:46:52.856Z,17.80
2018-09-06T06:49:21.165Z,17.90
2018-09-06T06:51:49.490Z,17.90
2018-09-06T06:54:17.803Z,18.00
2018-09-06T06:56:46.481Z,18.00
2018-09-06T06:59:15.047Z,18.10
2018-09-06T07:01:43.648Z,18.10
2018-09-06T07:04:12.022Z,18.20
2018-09-06T07:06:40.326Z,18.10
2018-09-06T07:09:09.692Z,18.20
2018-09-06T07:11:38.038Z,18.30
2018-09-06T07:14:13.049Z,18.30
2018-09-06T07:16:41.395Z,18.30
2018-09-06T07:19:10.853Z,18.40
2018-09-06T07:21:39.268Z,18.40
2018-09-06T07:24:08.243Z,18.40
2018-09-06T07:26:36.585Z,18.40
2018-09-06T07:29:04.972Z,18.40
2018-09-06T07:31:33.334Z,18.40
2018-09-06T07:34:01.668Z,18.40
2018-09-06T07:36:30.086Z,18.40
2018-09-06T07:38:58.418Z,18.40
2018-09-06T07:41:26.819Z,18.40
2018-09-06T07:43:55.078Z,18.40
2018-09-06T07:46:23.408Z,18.30
2018-09-06T07:48:51.753Z,18.30
2018-09-06T07:51:20.085Z,18.40
2018-09-06T07:53:48.397Z,18.40
2018-09-06T07:56:16.780Z,18.30
2018-09-06T07:58:45.764Z,18.30
2018-09-06T08:01:14.076Z,18.40
2018-09-06T08:03:43.208Z,18.40
2018-09-06T08:06:11.633Z,18.30
2018-09-06T08:08:39.938Z,18.30
2018-09-06T08:11:08.241Z,18.30
2018-09-06T08:13:36.590Z,18.40
2018-09-06T08:16:05.235Z,18.40
2018-09-06T08:18:33.553Z,18.40
2018-09-06T08:21:01.934Z,18.40
2018-09-06T08:23:30.317Z,18.40
2018-09-06T08:25:58.932Z,18.50
2018-09-06T08:28:27.285Z,18.40
2018-09-06T08:30:55.713Z,18.40
2018-09-06T08:33:23.913Z,18.50
2018-09-06T08:35:52.576Z,18.60
2018-09-06T08:38:20.953Z,18.60
2018-09-06T08:40:49.280Z,18.60
2018-09-06T08:43:17.655Z,18.60
2018-09-06T08:45:46.005Z,18.60
2018-09-06T08:48:14.349Z,18.60
2018-09-06T08:50:42.692Z,18.50
2018-09-06T08:53:11.028Z,18.50
2018-09-06T08:55:39.388Z,18.50
2018-09-06T08:58:07.721Z,18.50
2018-09-06T09:00:39.719Z,18.50
2018-09-06T09:03:08.640Z,18.60
2018-09-06T09:05:37.077Z,18.60
2018-09-06T09:08:05.809Z,18.70
2018-09-06T09:10:34.683Z,18.70
2018-09-06T09:13:03.066Z,18.70
2018-09-06T09:15:31.362Z,18.70
2018-09-06T09:17:59.677Z,18.70
2018-09-06T09:20:28.034Z,18.60
2018-09-06T09:22:56.361Z,18.60
2018-09-06T09:25:24.773Z,18.70
2018-09-06T09:27:53.108Z,18.60
2018-09-06T09:30:21.442Z,18.60
2018-09-06T09:32:49.773Z,18.50
2018-09-06T09:35:18.125Z,18.60
2018-09-06T09:37:46.530Z,18.60
2018-09-06T09:40:14.890Z,18.60
2018-09-06T09:42:43.229Z,18.60
2018-09-06T09:45:11.381Z,18.70
2018-09-06T09:47:39.771Z,18.90
2018-09-06T09:50:08.081Z,19.00
2018-09-06T09:52:36.460Z,19.00
2018-09-06T09:55:04.801Z,18.90
2018-09-06T09:57:33.189Z,18.80
2018-09-06T10:00:01.657Z,18.80
2018-09-06T10:02:35.403Z,18.80
2018-09-06T10:07:12.101Z,18.70
2018-09-06T10:09:40.430Z,18.70
2018-09-06T10:12:08.795Z,18.60
2018-09-06T10:14:37.113Z,18.60
2018-09-06T10:17:05.505Z,18.70
2018-09-06T10:19:33.818Z,18.70
2018-09-06T10:22:02.168Z,18.60
2018-09-06T10:24:31.620Z,18.60
2018-09-06T10:27:00.011Z,18.60
2018-09-06T10:29:28.337Z,18.60
2018-09-06T10:31:56.695Z,18.70
2018-09-06T10:34:25.152Z,18.70
2018-09-06T10:36:53.476Z,18.70
2018-09-06T10:39:21.869Z,18.70
2018-09-06T10:41:50.164Z,18.80
2018-09-06T10:44:18.512Z,18.80
2018-09-06T10:46:46.935Z,18.90
2018-09-06T10:49:15.266Z,18.90
2018-09-06T10:51:43.582Z,18.90
2018-09-06T10:54:11.954Z,19.00
2018-09-06T10:56:40.389Z,19.00
2018-09-06T10:59:08.717Z,18.90
2018-09-06T11:01:37.177Z,18.70
2018-09-06T11:04:05.578Z,18.80
2018-09-06T11:06:33.949Z,18.80
2018-09-06T11:09:02.325Z,18.80
2018-09-06T11:11:30.658Z,18.80
2018-09-06T11:13:58.988Z,18.80
2018-09-06T11:16:27.736Z,18.80
2018-09-06T11:18:56.060Z,18.60
2018-09-06T11:21:24.410Z,18.80
2018-09-06T11:23:52.663Z,18.70
2018-09-06T11:26:20.985Z,18.70
2018-09-06T11:28:49.296Z,18.70
2018-09-06T11:31:17.630Z,18.70
2018-09-06T11:33:45.951Z,18.80
2018-09-06T11:36:14.280Z,19.00
2018-09-06T11:38:43.589Z,19.20
2018-09-06T11:41:11.941Z,19.30
2018-09-06T11:43:40.264Z,19.40
2018-09-06T11:46:08.777Z,19.50
2018-09-06T11:48:37.150Z,19.40
2018-09-06T11:51:05.901Z,19.40
2018-09-06T11:53:34.220Z,19.40
2018-09-06T11:56:02.561Z,19.40
2018-09-06T11:58:30.921Z,19.40
2018-09-06T12:00:59.257Z,19.50
2018-09-06T12:03:27.665Z,19.40
2018-09-06T12:05:56.044Z,19.40
2018-09-06T12:08:24.378Z,19.40
2018-09-06T12:10:52.752Z,19.60
2018-09-06T12:13:21.118Z,19.70
2018-09-06T12:15:49.482Z,20.00
2018-09-06T12:18:17.879Z,20.10
2018-09-06T12:20:46.304Z,20.30
2018-09-06T12:23:14.773Z,20.30
2018-09-06T12:25:43.097Z,20.30
2018-09-06T12:28:11.504Z,20.40
2018-09-06T12:30:40.362Z,20.80
2018-09-06T12:33:09.083Z,20.90
2018-09-06T12:35:37.937Z,20.60
2018-09-06T12:38:06.277Z,20.40
2018-09-06T12:40:34.592Z,20.20
2018-09-06T12:43:02.952Z,20.10
2018-09-06T12:45:32.024Z,20.20
2018-09-06T12:48:00.416Z,20.30
2018-09-06T12:50:28.768Z,20.50
2018-09-06T12:52:57.173Z,20.70
2018-09-06T12:55:25.504Z,20.60
2018-09-06T12:57:53.888Z,20.70
2018-09-06T13:00:22.241Z,20.60
2018-09-06T13:02:50.545Z,20.70
2018-09-06T13:05:18.890Z,20.80
2018-09-06T13:07:47.238Z,20.80
2018-09-06T13:10:15.629Z,21.30
2018-09-06T13:12:43.940Z,21.60
2018-09-06T13:15:12.272Z,21.60
2018-09-06T13:17:40.596Z,21.60
2018-09-06T13:20:08.972Z,21.30
2018-09-06T13:22:37.296Z,21.60
2018-09-06T13:25:05.744Z,21.70
2018-09-06T13:27:34.108Z,21.70
2018-09-06T13:30:02.503Z,22.20
2018-09-06T13:32:31.426Z,22.90
2018-09-06T13:34:59.738Z,23.30
2018-09-06T13:37:28.045Z,23.90
2018-09-06T13:39:56.352Z,24.10
2018-09-06T13:42:24.685Z,24.00
2018-09-06T13:44:53.039Z,23.80
2018-09-06T13:47:21.350Z,24.40
2018-09-06T13:49:49.652Z,24.20
2018-09-06T13:52:18.072Z,23.70
2018-09-06T13:54:46.307Z,23.60
2018-09-06T13:57:14.624Z,23.30
2018-09-06T13:59:42.962Z,22.90
2018-09-06T14:02:11.290Z,23.00
2018-09-06T14:04:39.660Z,22.60
2018-09-06T14:07:07.985Z,22.30
2018-09-06T14:09:36.331Z,22.70
2018-09-06T14:12:05.310Z,23.40
2018-09-06T14:14:33.886Z,23.10
2018-09-06T14:17:03.441Z,23.40
2018-09-06T14:19:31.805Z,23.40
2018-09-06T14:22:00.466Z,23.30
2018-09-06T14:24:29.012Z,23.70
2018-09-06T14:26:57.537Z,23.40
2018-09-06T14:29:25.865Z,22.80
2018-09-06T14:31:54.190Z,22.60
2018-09-06T14:34:22.634Z,22.30
2018-09-06T14:36:51.040Z,22.30
2018-09-06T14:39:19.405Z,22.40
2018-09-06T14:42:00.534Z,22.30
2018-09-06T14:44:29.265Z,22.10
2018-09-06T14:46:57.564Z,22.00
2018-09-06T14:49:26.653Z,21.90
2018-09-06T14:51:54.992Z,21.90
2018-09-06T14:54:23.382Z,21.80
2018-09-06T14:56:52.223Z,21.80
2018-09-06T14:59:28.191Z,21.90
2018-09-06T15:01:56.586Z,21.70
2018-09-06T15:04:24.988Z,21.60
2018-09-06T15:06:53.314Z,21.50
2018-09-06T15:09:21.624Z,21.60
2018-09-06T15:11:51.672Z,21.80
2018-09-06T15:14:19.993Z,21.80
2018-09-06T15:16:48.453Z,21.80
2018-09-06T15:19:23.842Z,21.80
2018-09-06T15:21:58.951Z,21.70
2018-09-06T15:24:27.347Z,21.70
2018-09-06T15:26:56.085Z,21.80
2018-09-06T15:29:24.768Z,21.60
2018-09-06T15:31:53.125Z,21.60
2018-09-06T15:34:22.042Z,21.60
2018-09-06T15:36:50.381Z,21.50
2018-09-06T15:39:19.012Z,21.30
2018-09-06T15:41:49.365Z,21.40
2018-09-06T15:44:17.793Z,21.40
2018-09-06T15:46:46.166Z,21.30
2018-09-06T15:49:14.541Z,21.20
2018-09-06T15:51:44.079Z,21.20
2018-09-06T15:54:12.554Z,21.20
2018-09-06T15:56:42.174Z,21.30
2018-09-06T15:59:17.530Z,21.50
2018-09-06T16:01:45.918Z,21.20
2018-09-06T16:04:14.937Z,21.20
2018-09-06T16:06:43.289Z,21.10
2018-09-06T16:09:13.695Z,21.00
2018-09-06T16:11:42.010Z,21.00
2018-09-06T16:14:10.451Z,21.00
2018-09-06T16:16:38.785Z,20.90
2018-09-06T16:19:07.089Z,20.90
2018-09-06T16:21:35.414Z,20.80
2018-09-06T16:24:03.798Z,20.70
2018-09-06T16:26:32.154Z,20.70
2018-09-06T16:29:00.474Z,20.70
2018-09-06T16:31:28.857Z,20.70
2018-09-06T16:33:57.292Z,20.70
2018-09-06T16:36:25.636Z,20.60
2018-09-06T16:38:53.990Z,20.50
2018-09-06T16:41:22.295Z,20.40
2018-09-06T16:43:50.599Z,20.30
2018-09-06T16:46:18.965Z,20.30
2018-09-06T16:48:47.314Z,20.20
2018-09-06T16:51:15.641Z,20.20
2018-09-06T16:53:43.984Z,20.10
2018-09-06T16:56:12.956Z,20.00
2018-09-06T16:58:41.276Z,19.90
2018-09-06T17:01:09.645Z,19.80
2018-09-06T17:03:38.325Z,19.70
2018-09-06T17:06:07.378Z,19.60
2018-09-06T17:08:35.739Z,19.60
2018-09-06T17:11:04.109Z,19.60
2018-09-06T17:13:32.446Z,19.60
2018-09-06T17:16:01.120Z,19.60
2018-09-06T17:18:29.450Z,19.60
2018-09-06T17:20:57.756Z,19.60
2018-09-06T17:23:30.008Z,19.60
2018-09-06T17:26:01.411Z,19.60
2018-09-06T17:28:33.596Z,19.70
2018-09-06T17:31:02.089Z,19.60
2018-09-06T17:33:31.026Z,19.60
2018-09-06T17:35:59.397Z,19.60
2018-09-06T17:38:27.833Z,19.60
2018-09-06T17:40:58.156Z,19.60
2018-09-06T17:43:28.676Z,19.60
2018-09-06T17:45:57.807Z,19.60
2018-09-06T17:48:26.727Z,19.60
2018-09-06T17:50:56.935Z,19.60
2018-09-06T17:53:25.305Z,19.60
2018-09-06T17:55:53.649Z,19.50
2018-09-06T17:58:22.002Z,19.50
2018-09-06T18:01:01.562Z,19.50
2018-09-06T18:03:29.933Z,19.50
2018-09-06T18:05:58.488Z,19.40
2018-09-06T18:08:26.835Z,19.50
2018-09-06T18:10:55.226Z,19.40
2018-09-06T18:13:23.582Z,19.30
2018-09-06T18:15:52.072Z,19.30
2018-09-06T18:18:20.436Z,19.20
2018-09-06T18:20:48.814Z,19.20
2018-09-06T18:23:17.190Z,19.20
2018-09-06T18:25:46.432Z,19.30
2018-09-06T18:28:15.481Z,19.10
2018-09-06T18:30:43.937Z,19.00
2018-09-06T18:33:12.381Z,18.90
2018-09-06T18:35:40.816Z,18.80
2018-09-06T18:38:09.204Z,18.90
2018-09-06T18:40:37.577Z,18.90
2018-09-06T18:43:05.953Z,18.90
2018-09-06T18:45:34.324Z,18.80
2018-09-06T18:48:02.665Z,18.70
2018-09-06T18:50:31.078Z,18.70
2018-09-06T18:53:00.250Z,18.60
2018-09-06T18:55:28.660Z,18.50
2018-09-06T18:58:05.931Z,18.40
2018-09-06T19:00:34.734Z,18.30
2018-09-06T19:03:03.061Z,18.20
2018-09-06T19:05:33.126Z,18.10
2018-09-06T19:08:02.260Z,18.10
2018-09-06T19:10:30.676Z,18.00
2018-09-06T19:12:59.091Z,17.90
2018-09-06T19:15:27.489Z,17.80
2018-09-06T19:17:55.948Z,17.80
2018-09-06T19:20:24.376Z,17.70
2018-09-06T19:22:52.691Z,17.60
2018-09-06T19:25:21.377Z,17.60
2018-09-06T19:27:49.902Z,17.50
2018-09-06T19:30:18.272Z,17.40
2018-09-06T19:32:46.590Z,17.30
2018-09-06T19:35:15.145Z,17.30
2018-09-06T19:37:43.528Z,17.20
2018-09-06T19:40:11.899Z,17.10
2018-09-06T19:42:40.236Z,17.00
2018-09-06T19:45:09.260Z,16.90
2018-09-06T19:47:37.661Z,16.80
2018-09-06T19:50:06.184Z,16.70
2018-09-06T19:52:34.555Z,16.60
2018-09-06T19:55:02.956Z,16.50
2018-09-06T19:57:35.734Z,16.50
2018-09-06T20:00:10.037Z,16.50
2018-09-06T20:02:41.888Z,16.50
2018-09-06T20:05:13.741Z,16.40
2018-09-06T20:07:45.681Z,16.30
2018-09-06T20:10:21.530Z,16.20
2018-09-06T20:12:54.329Z,16.20
2018-09-06T20:15:29.475Z,16.20
2018-09-06T20:18:01.036Z,16.50
2018-09-06T20:20:31.759Z,16.50
2018-09-06T20:23:05.223Z,16.50
2018-09-06T20:25:37.478Z,16.50
2018-09-06T20:28:13.825Z,16.40
2018-09-06T20:30:46.476Z,16.40
2018-09-06T20:33:22.705Z,16.40
2018-09-06T20:35:57.771Z,16.40
2018-09-06T20:38:31.174Z,16.40
2018-09-06T20:41:11.395Z,16.30
2018-09-06T20:43:44.753Z,16.20
2018-09-06T20:46:17.709Z,16.20
2018-09-06T20:48:52.848Z,16.20
2018-09-06T20:51:25.357Z,16.20
2018-09-06T20:53:57.988Z,16.30
2018-09-06T20:56:27.791Z,16.40
2018-09-06T20:58:56.836Z,16.40
2018-09-06T21:01:25.166Z,16.40
2018-09-06T21:03:53.466Z,16.40
2018-09-06T21:06:21.842Z,16.40
2018-09-06T21:08:50.223Z,16.40
2018-09-06T21:11:18.555Z,16.40
2018-09-06T21:13:46.961Z,16.40
2018-09-06T21:16:15.335Z,16.40
2018-09-06T21:18:43.660Z,16.30
2018-09-06T21:21:12.024Z,16.40
2018-09-06T21:23:40.433Z,16.40
2018-09-06T21:26:08.765Z,16.40
2018-09-06T21:28:37.186Z,16.40
2018-09-06T21:31:05.584Z,16.40
2018-09-06T21:33:33.902Z,16.40
2018-09-06T21:36:02.239Z,16.30
2018-09-06T21:38:30.565Z,16.30
2018-09-06T21:40:59.041Z,16.30
2018-09-06T21:43:27.409Z,16.30
2018-09-06T21:45:55.754Z,16.30
2018-09-06T21:48:24.080Z,16.20
2018-09-06T21:50:52.401Z,16.30
2018-09-06T21:53:20.751Z,16.40
2018-09-06T21:55:49.076Z,16.40
2018-09-06T21:58:17.409Z,16.40
2018-09-06T22:00:45.864Z,16.40
2018-09-06T22:04:17.625Z,16.40
2018-09-06T22:06:46.013Z,16.50
2018-09-06T22:09:14.426Z,16.50
2018-09-06T22:11:42.784Z,16.50
2018-09-06T22:14:11.169Z,16.50
2018-09-06T22:16:39.520Z,16.50
2018-09-06T22:19:08.068Z,16.60
2018-09-06T22:21:36.753Z,16.50
2018-09-06T22:24:05.127Z,16.50
2018-09-06T22:26:33.496Z,16.50
2018-09-06T22:29:01.814Z,16.60
2018-09-06T22:31:30.145Z,16.50
2018-09-06T22:33:58.486Z,16.50
2018-09-06T22:36:26.814Z,16.40
2018-09-06T22:38:55.172Z,16.30
2018-09-06T22:41:23.530Z,16.00
2018-09-06T22:43:51.857Z,15.60
2018-09-06T22:46:20.534Z,15.40
2018-09-06T22:48:48.921Z,15.40
2018-09-06T22:51:17.244Z,15.40
2018-09-06T22:53:45.565Z,15.30
2018-09-06T22:56:13.899Z,15.40
2018-09-06T22:58:42.242Z,15.50
2018-09-06T23:01:10.583Z,15.60
2018-09-06T23:03:43.108Z,15.60
2018-09-06T23:06:11.417Z,15.60
2018-09-06T23:08:39.744Z,15.50
2018-09-06T23:11:08.082Z,15.50
2018-09-06T23:13:36.389Z,15.50
2018-09-06T23:16:05.255Z,15.50
2018-09-06T23:18:33.566Z,15.60
2018-09-06T23:21:01.885Z,15.60
2018-09-06T23:23:30.247Z,15.60
2018-09-06T23:25:58.573Z,15.70
2018-09-06T23:28:26.892Z,15.80
2018-09-06T23:30:55.266Z,15.80
2018-09-06T23:33:23.776Z,15.70
2018-09-06T23:35:52.134Z,15.80
2018-09-06T23:38:20.501Z,15.70
2018-09-06T23:40:54.224Z,15.60
2018-09-06T23:43:23.573Z,15.60
2018-09-06T23:45:52.620Z,15.70
2018-09-06T23:48:22.790Z,15.80
2018-09-06T23:50:51.447Z,15.80
2018-09-06T23:53:19.805Z,15.80
2018-09-06T23:55:49.140Z,15.80
2018-09-06T23:58:17.598Z,15.80
